Liebenthal, Kansas
Current Conditions -  °F | °C
As of 2:35 AM on Saturday 22 Nov 2014 (Local Time) from KHYS Reporting Station
Overcast Overcast  
Wind Chill: 27°   Ceiling: 200
Heat Index: 34°   Visibility: 0.25mi
Dew Point: 27°   Wind: 8mph
Humidity: 75%   Direction: 190°S
Pressure: 29.96"   Gusts: NA
Location:  38.66°N, 99.32°W
Report Text: KHYS 220835Z AUTO 19007KT 1/4SM OVC002 01/M03 A2996 RMK AO1
Loading
Personal Weather Stations






























Interactive Weather Map New forecast layout! Learn more

10-Day Weather Forecast

Advertisements
Track Severe Weather on mobile